CheckWX is a tool to help pilots better visualize weather data.  It is not intended as a substitute for an official pre-flight weather briefing.

18:24:13 UTC

LFPN METAR
Toussus-le-Noble Airport
Toussus-le-Noble, France
Current

24 mins ago

LFPN 201800Z AUTO 13003KT CAVOK 09/05 Q1024 NOSIG
Observed
Feb-20 @ 18:00 UTC
Wind
  • 130° at 3 KTS
Visibility
10,000+ meters
Flight Rules
VFR
Cloud Levels
  • Clear skies
Temperature
C / 48°F
Dewpoint
C / 41°F
Humidity
76%
Altimeter
30.24" Hg
Pressure
1023.92 hPa
Previous

54 mins ago

LFPN 201730Z AUTO 19002KT CAVOK 10/05 Q1024 TEMPO BKN008
Observed
Feb-20 @ 17:30 UTC
Wind
  • 190° at 2 KTS
Visibility
10,000+ meters
Flight Rules
VFR
Cloud Levels
  • Clear skies
Temperature
10°C / 50°F
Dewpoint
C / 41°F
Humidity
71%
Altimeter
30.24" Hg
Pressure
1023.92 hPa
Previous

1 hour ago

LFPN 201700Z AUTO 18004KT CAVOK 11/05 Q1024 TEMPO BKN008
Observed
Feb-20 @ 17:00 UTC
Wind
  • 180° at 4 KTS
Visibility
10,000+ meters
Flight Rules
VFR
Cloud Levels
  • Clear skies
Temperature
11°C / 52°F
Dewpoint
C / 41°F
Humidity
67%
Altimeter
30.24" Hg
Pressure
1023.92 hPa